sensor_id;sensor_type;location;lat;lon;timestamp;temperature;humidity
59847;DHT22;45728;48.788;2.302;2023-06-04T00:02:25;18.60;95.90
59847;DHT22;45728;48.788;2.302;2023-06-04T00:04:51;18.50;95.90
59847;DHT22;45728;48.788;2.302;2023-06-04T00:07:17;18.50;96.00
59847;DHT22;45728;48.788;2.302;2023-06-04T00:09:43;18.50;96.00
59847;DHT22;45728;48.788;2.302;2023-06-04T00:12:13;18.40;96.00
59847;DHT22;45728;48.788;2.302;2023-06-04T00:14:39;18.30;96.10
59847;DHT22;45728;48.788;2.302;2023-06-04T00:17:05;18.30;96.20
59847;DHT22;45728;48.788;2.302;2023-06-04T00:19:31;18.20;96.20
59847;DHT22;45728;48.788;2.302;2023-06-04T00:21:57;18.20;96.30
59847;DHT22;45728;48.788;2.302;2023-06-04T00:24:23;18.10;96.30
59847;DHT22;45728;48.788;2.302;2023-06-04T00:26:49;18.10;96.30
59847;DHT22;45728;48.788;2.302;2023-06-04T00:29:15;18.10;96.40
59847;DHT22;45728;48.788;2.302;2023-06-04T00:31:41;18.00;96.40
59847;DHT22;45728;48.788;2.302;2023-06-04T00:34:07;18.10;96.40
59847;DHT22;45728;48.788;2.302;2023-06-04T00:36:33;18.10;96.40
59847;DHT22;45728;48.788;2.302;2023-06-04T00:38:59;18.00;96.50
59847;DHT22;45728;48.788;2.302;2023-06-04T00:41:25;17.90;96.50
59847;DHT22;45728;48.788;2.302;2023-06-04T00:43:52;17.90;96.60
59847;DHT22;45728;48.788;2.302;2023-06-04T00:46:28;17.90;96.60
59847;DHT22;45728;48.788;2.302;2023-06-04T00:48:55;17.90;96.70
59847;DHT22;45728;48.788;2.302;2023-06-04T00:51:22;17.80;96.70
59847;DHT22;45728;48.788;2.302;2023-06-04T00:53:52;17.70;96.70
59847;DHT22;45728;48.788;2.302;2023-06-04T00:56:18;17.70;96.80
59847;DHT22;45728;48.788;2.302;2023-06-04T00:58:45;17.60;96.90
59847;DHT22;45728;48.788;2.302;2023-06-04T01:01:34;17.60;96.90
59847;DHT22;45728;48.788;2.302;2023-06-04T01:04:04;17.60;96.90
59847;DHT22;45728;48.788;2.302;2023-06-04T01:06:38;17.60;96.90
59847;DHT22;45728;48.788;2.302;2023-06-04T01:09:05;17.50;97.00
59847;DHT22;45728;48.788;2.302;2023-06-04T01:11:36;17.50;97.10
59847;DHT22;45728;48.788;2.302;2023-06-04T01:14:04;17.50;97.00
59847;DHT22;45728;48.788;2.302;2023-06-04T01:16:39;17.40;97.00
59847;DHT22;45728;48.788;2.302;2023-06-04T01:22:17;17.40;97.10
59847;DHT22;45728;48.788;2.302;2023-06-04T01:24:52;17.40;97.10
59847;DHT22;45728;48.788;2.302;2023-06-04T01:27:19;17.40;97.10
59847;DHT22;45728;48.788;2.302;2023-06-04T01:29:45;17.40;97.10
59847;DHT22;45728;48.788;2.302;2023-06-04T01:32:11;17.30;97.10
59847;DHT22;45728;48.788;2.302;2023-06-04T01:34:46;17.30;97.20
59847;DHT22;45728;48.788;2.302;2023-06-04T01:37:12;17.30;97.20
59847;DHT22;45728;48.788;2.302;2023-06-04T01:39:39;17.30;97.10
59847;DHT22;45728;48.788;2.302;2023-06-04T01:42:05;17.30;97.20
59847;DHT22;45728;48.788;2.302;2023-06-04T01:44:31;17.20;97.30
59847;DHT22;45728;48.788;2.302;2023-06-04T01:46:57;17.20;97.30
59847;DHT22;45728;48.788;2.302;2023-06-04T01:49:23;17.20;97.40
59847;DHT22;45728;48.788;2.302;2023-06-04T01:51:50;17.10;97.40
59847;DHT22;45728;48.788;2.302;2023-06-04T01:54:16;17.20;97.40
59847;DHT22;45728;48.788;2.302;2023-06-04T01:56:42;17.20;97.50
59847;DHT22;45728;48.788;2.302;2023-06-04T01:59:08;17.10;97.50
59847;DHT22;45728;48.788;2.302;2023-06-04T02:01:38;17.10;97.50
59847;DHT22;45728;48.788;2.302;2023-06-04T02:04:04;17.10;97.50
59847;DHT22;45728;48.788;2.302;2023-06-04T02:06:30;17.10;97.60
59847;DHT22;45728;48.788;2.302;2023-06-04T02:08:57;17.00;97.60
59847;DHT22;45728;48.788;2.302;2023-06-04T02:11:23;17.00;97.60
59847;DHT22;45728;48.788;2.302;2023-06-04T02:13:49;17.00;97.60
59847;DHT22;45728;48.788;2.302;2023-06-04T02:16:15;17.00;97.70
59847;DHT22;45728;48.788;2.302;2023-06-04T02:18:41;17.00;97.80
59847;DHT22;45728;48.788;2.302;2023-06-04T02:21:07;16.90;97.70
59847;DHT22;45728;48.788;2.302;2023-06-04T02:23:33;16.90;97.80
59847;DHT22;45728;48.788;2.302;2023-06-04T02:26:00;16.90;97.80
59847;DHT22;45728;48.788;2.302;2023-06-04T02:28:26;16.90;97.80
59847;DHT22;45728;48.788;2.302;2023-06-04T02:30:52;16.90;97.90
59847;DHT22;45728;48.788;2.302;2023-06-04T02:33:19;16.70;98.00
59847;DHT22;45728;48.788;2.302;2023-06-04T02:35:46;16.70;98.00
59847;DHT22;45728;48.788;2.302;2023-06-04T02:38:12;16.70;98.10
59847;DHT22;45728;48.788;2.302;2023-06-04T02:40:38;16.60;98.20
59847;DHT22;45728;48.788;2.302;2023-06-04T02:43:05;16.60;98.30
59847;DHT22;45728;48.788;2.302;2023-06-04T02:45:32;16.50;98.30
59847;DHT22;45728;48.788;2.302;2023-06-04T02:47:58;16.50;98.30
59847;DHT22;45728;48.788;2.302;2023-06-04T02:50:24;16.40;98.40
59847;DHT22;45728;48.788;2.302;2023-06-04T02:52:50;16.40;98.60
59847;DHT22;45728;48.788;2.302;2023-06-04T02:55:16;16.40;98.50
59847;DHT22;45728;48.788;2.302;2023-06-04T02:57:42;16.40;98.50
59847;DHT22;45728;48.788;2.302;2023-06-04T03:00:12;16.40;98.40
59847;DHT22;45728;48.788;2.302;2023-06-04T03:02:41;16.50;98.30
59847;DHT22;45728;48.788;2.302;2023-06-04T03:05:09;16.30;98.50
59847;DHT22;45728;48.788;2.302;2023-06-04T03:07:37;16.20;98.60
59847;DHT22;45728;48.788;2.302;2023-06-04T03:10:03;16.10;98.70
59847;DHT22;45728;48.788;2.302;2023-06-04T03:12:30;16.10;98.80
59847;DHT22;45728;48.788;2.302;2023-06-04T03:14:56;16.00;98.90
59847;DHT22;45728;48.788;2.302;2023-06-04T03:17:22;16.00;98.90
59847;DHT22;45728;48.788;2.302;2023-06-04T03:19:48;15.90;99.00
59847;DHT22;45728;48.788;2.302;2023-06-04T03:22:14;15.90;99.00
59847;DHT22;45728;48.788;2.302;2023-06-04T03:24:41;15.90;99.00
59847;DHT22;45728;48.788;2.302;2023-06-04T03:27:09;15.90;99.00
59847;DHT22;45728;48.788;2.302;2023-06-04T03:29:36;15.80;99.00
59847;DHT22;45728;48.788;2.302;2023-06-04T03:32:03;15.80;99.10
59847;DHT22;45728;48.788;2.302;2023-06-04T03:34:29;15.80;99.10
59847;DHT22;45728;48.788;2.302;2023-06-04T03:36:59;15.80;99.10
59847;DHT22;45728;48.788;2.302;2023-06-04T03:39:25;15.80;99.10
59847;DHT22;45728;48.788;2.302;2023-06-04T03:41:51;15.80;99.20
59847;DHT22;45728;48.788;2.302;2023-06-04T03:44:18;15.70;99.30
59847;DHT22;45728;48.788;2.302;2023-06-04T03:46:45;15.70;99.40
59847;DHT22;45728;48.788;2.302;2023-06-04T03:49:12;15.70;99.40
59847;DHT22;45728;48.788;2.302;2023-06-04T03:51:39;15.70;99.40
59847;DHT22;45728;48.788;2.302;2023-06-04T03:54:05;15.70;99.40
59847;DHT22;45728;48.788;2.302;2023-06-04T03:56:32;15.70;99.50
59847;DHT22;45728;48.788;2.302;2023-06-04T03:58:58;15.60;99.50
59847;DHT22;45728;48.788;2.302;2023-06-04T04:01:25;15.60;99.50
59847;DHT22;45728;48.788;2.302;2023-06-04T04:03:52;15.60;99.50
59847;DHT22;45728;48.788;2.302;2023-06-04T04:06:18;15.60;99.50
59847;DHT22;45728;48.788;2.302;2023-06-04T04:08:45;15.60;99.50
59847;DHT22;45728;48.788;2.302;2023-06-04T04:11:13;15.50;99.60
59847;DHT22;45728;48.788;2.302;2023-06-04T04:13:39;15.50;99.60
59847;DHT22;45728;48.788;2.302;2023-06-04T04:16:05;15.50;99.60
59847;DHT22;45728;48.788;2.302;2023-06-04T04:18:35;15.40;99.60
59847;DHT22;45728;48.788;2.302;2023-06-04T04:21:03;15.50;99.60
59847;DHT22;45728;48.788;2.302;2023-06-04T04:23:29;15.50;99.70
59847;DHT22;45728;48.788;2.302;2023-06-04T04:25:56;15.40;99.60
59847;DHT22;45728;48.788;2.302;2023-06-04T04:28:25;15.50;99.70
59847;DHT22;45728;48.788;2.302;2023-06-04T04:30:55;15.40;99.60
59847;DHT22;45728;48.788;2.302;2023-06-04T04:33:25;15.40;99.70
59847;DHT22;45728;48.788;2.302;2023-06-04T04:35:51;15.40;99.60
59847;DHT22;45728;48.788;2.302;2023-06-04T04:38:19;15.40;99.60
59847;DHT22;45728;48.788;2.302;2023-06-04T04:40:47;15.40;99.70
59847;DHT22;45728;48.788;2.302;2023-06-04T04:43:13;15.40;99.70
59847;DHT22;45728;48.788;2.302;2023-06-04T04:45:39;15.40;99.70
59847;DHT22;45728;48.788;2.302;2023-06-04T04:48:05;15.30;99.70
59847;DHT22;45728;48.788;2.302;2023-06-04T04:50:31;15.40;99.80
59847;DHT22;45728;48.788;2.302;2023-06-04T04:52:58;15.30;99.70
59847;DHT22;45728;48.788;2.302;2023-06-04T04:55:24;15.40;99.80
59847;DHT22;45728;48.788;2.302;2023-06-04T04:57:50;15.30;99.80
59847;DHT22;45728;48.788;2.302;2023-06-04T05:00:17;15.40;99.70
59847;DHT22;45728;48.788;2.302;2023-06-04T05:02:43;15.30;99.70
59847;DHT22;45728;48.788;2.302;2023-06-04T05:05:09;15.30;99.70
59847;DHT22;45728;48.788;2.302;2023-06-04T05:07:36;15.40;99.70
59847;DHT22;45728;48.788;2.302;2023-06-04T05:10:02;15.40;99.70
59847;DHT22;45728;48.788;2.302;2023-06-04T05:12:30;15.40;99.60
59847;DHT22;45728;48.788;2.302;2023-06-04T05:14:59;15.40;99.60
59847;DHT22;45728;48.788;2.302;2023-06-04T05:17:25;15.40;99.60
59847;DHT22;45728;48.788;2.302;2023-06-04T05:19:56;15.40;99.60
59847;DHT22;45728;48.788;2.302;2023-06-04T05:22:38;15.40;99.80
59847;DHT22;45728;48.788;2.302;2023-06-04T05:25:04;15.50;99.50
59847;DHT22;45728;48.788;2.302;2023-06-04T05:27:32;15.50;99.50
59847;DHT22;45728;48.788;2.302;2023-06-04T05:29:58;15.60;99.60
59847;DHT22;45728;48.788;2.302;2023-06-04T05:32:24;15.60;99.60
59847;DHT22;45728;48.788;2.302;2023-06-04T05:34:54;15.60;99.50
59847;DHT22;45728;48.788;2.302;2023-06-04T05:37:25;15.60;99.50
59847;DHT22;45728;48.788;2.302;2023-06-04T05:39:53;15.60;99.40
59847;DHT22;45728;48.788;2.302;2023-06-04T05:42:19;15.60;99.30
59847;DHT22;45728;48.788;2.302;2023-06-04T05:44:45;15.70;99.40
59847;DHT22;45728;48.788;2.302;2023-06-04T05:47:11;15.70;99.10
59847;DHT22;45728;48.788;2.302;2023-06-04T05:49:37;15.90;99.20
59847;DHT22;45728;48.788;2.302;2023-06-04T05:52:04;16.20;98.70
59847;DHT22;45728;48.788;2.302;2023-06-04T05:54:31;16.50;98.60
59847;DHT22;45728;48.788;2.302;2023-06-04T05:56:57;17.00;98.00
59847;DHT22;45728;48.788;2.302;2023-06-04T05:59:23;17.20;97.70
59847;DHT22;45728;48.788;2.302;2023-06-04T06:01:50;17.40;97.50
59847;DHT22;45728;48.788;2.302;2023-06-04T06:04:16;17.70;97.20
59847;DHT22;45728;48.788;2.302;2023-06-04T06:06:42;17.90;97.00
59847;DHT22;45728;48.788;2.302;2023-06-04T06:09:10;18.00;96.60
59847;DHT22;45728;48.788;2.302;2023-06-04T06:11:36;18.10;96.50
59847;DHT22;45728;48.788;2.302;2023-06-04T06:14:03;18.40;96.40
59847;DHT22;45728;48.788;2.302;2023-06-04T06:16:29;18.50;96.40
59847;DHT22;45728;48.788;2.302;2023-06-04T06:18:55;18.60;95.90
59847;DHT22;45728;48.788;2.302;2023-06-04T06:21:21;18.70;96.10
59847;DHT22;45728;48.788;2.302;2023-06-04T06:23:47;18.80;95.60
59847;DHT22;45728;48.788;2.302;2023-06-04T06:26:14;18.80;95.70
59847;DHT22;45728;48.788;2.302;2023-06-04T06:28:40;18.80;95.50
59847;DHT22;45728;48.788;2.302;2023-06-04T06:31:06;19.00;95.60
59847;DHT22;45728;48.788;2.302;2023-06-04T06:33:32;19.30;95.10
59847;DHT22;45728;48.788;2.302;2023-06-04T06:35:58;19.20;95.20
59847;DHT22;45728;48.788;2.302;2023-06-04T06:38:28;19.20;94.90
59847;DHT22;45728;48.788;2.302;2023-06-04T06:40:54;19.10;95.10
59847;DHT22;45728;48.788;2.302;2023-06-04T06:43:20;19.00;95.30
59847;DHT22;45728;48.788;2.302;2023-06-04T06:45:46;19.00;95.30
59847;DHT22;45728;48.788;2.302;2023-06-04T06:48:12;19.00;95.40
59847;DHT22;45728;48.788;2.302;2023-06-04T06:50:38;19.00;95.10
59847;DHT22;45728;48.788;2.302;2023-06-04T06:53:04;18.80;95.60
59847;DHT22;45728;48.788;2.302;2023-06-04T06:55:30;18.60;95.60
59847;DHT22;45728;48.788;2.302;2023-06-04T06:57:58;18.80;95.50
59847;DHT22;45728;48.788;2.302;2023-06-04T07:00:26;18.80;95.30
59847;DHT22;45728;48.788;2.302;2023-06-04T07:02:53;18.60;95.30
59847;DHT22;45728;48.788;2.302;2023-06-04T07:05:19;18.40;95.60
59847;DHT22;45728;48.788;2.302;2023-06-04T07:07:46;18.40;95.60
59847;DHT22;45728;48.788;2.302;2023-06-04T07:10:12;18.30;95.80
59847;DHT22;45728;48.788;2.302;2023-06-04T07:12:39;18.20;95.90
59847;DHT22;45728;48.788;2.302;2023-06-04T07:15:06;18.30;95.70
59847;DHT22;45728;48.788;2.302;2023-06-04T07:17:34;18.40;95.70
59847;DHT22;45728;48.788;2.302;2023-06-04T07:20:00;18.30;95.70
59847;DHT22;45728;48.788;2.302;2023-06-04T07:22:26;18.20;96.00
59847;DHT22;45728;48.788;2.302;2023-06-04T07:24:52;18.40;95.90
59847;DHT22;45728;48.788;2.302;2023-06-04T07:27:19;18.40;95.90
59847;DHT22;45728;48.788;2.302;2023-06-04T07:29:45;18.50;95.80
59847;DHT22;45728;48.788;2.302;2023-06-04T07:32:12;18.60;95.70
59847;DHT22;45728;48.788;2.302;2023-06-04T07:34:38;18.50;95.70
59847;DHT22;45728;48.788;2.302;2023-06-04T07:37:05;18.70;95.80
59847;DHT22;45728;48.788;2.302;2023-06-04T07:39:31;19.00;95.50
59847;DHT22;45728;48.788;2.302;2023-06-04T07:41:57;19.10;95.50
59847;DHT22;45728;48.788;2.302;2023-06-04T07:44:23;18.90;95.30
59847;DHT22;45728;48.788;2.302;2023-06-04T07:46:49;18.80;95.30
59847;DHT22;45728;48.788;2.302;2023-06-04T07:49:15;18.80;95.50
59847;DHT22;45728;48.788;2.302;2023-06-04T07:51:41;18.80;95.40
59847;DHT22;45728;48.788;2.302;2023-06-04T07:54:07;18.90;95.70
59847;DHT22;45728;48.788;2.302;2023-06-04T07:56:34;19.00;95.40
59847;DHT22;45728;48.788;2.302;2023-06-04T07:59:01;19.20;95.30
59847;DHT22;45728;48.788;2.302;2023-06-04T08:01:27;19.20;95.20
59847;DHT22;45728;48.788;2.302;2023-06-04T08:03:53;19.40;95.30
59847;DHT22;45728;48.788;2.302;2023-06-04T08:06:19;19.50;94.90
59847;DHT22;45728;48.788;2.302;2023-06-04T08:08:45;19.40;94.90
59847;DHT22;45728;48.788;2.302;2023-06-04T08:11:14;19.50;95.10
59847;DHT22;45728;48.788;2.302;2023-06-04T08:13:41;19.70;95.00
59847;DHT22;45728;48.788;2.302;2023-06-04T08:16:08;19.70;95.00
59847;DHT22;45728;48.788;2.302;2023-06-04T08:18:39;19.90;94.70
59847;DHT22;45728;48.788;2.302;2023-06-04T08:21:08;19.90;94.70
59847;DHT22;45728;48.788;2.302;2023-06-04T08:23:34;19.90;94.70
59847;DHT22;45728;48.788;2.302;2023-06-04T08:26:00;19.80;94.80
59847;DHT22;45728;48.788;2.302;2023-06-04T08:28:26;20.10;94.80
59847;DHT22;45728;48.788;2.302;2023-06-04T08:30:52;20.30;94.60
59847;DHT22;45728;48.788;2.302;2023-06-04T08:33:18;20.40;94.20
59847;DHT22;45728;48.788;2.302;2023-06-04T08:35:44;20.50;94.40
59847;DHT22;45728;48.788;2.302;2023-06-04T08:38:10;20.50;94.20
59847;DHT22;45728;48.788;2.302;2023-06-04T08:40:37;20.70;94.10
59847;DHT22;45728;48.788;2.302;2023-06-04T08:43:04;20.80;93.90
59847;DHT22;45728;48.788;2.302;2023-06-04T08:45:32;20.80;94.10
59847;DHT22;45728;48.788;2.302;2023-06-04T08:48:00;21.00;94.00
59847;DHT22;45728;48.788;2.302;2023-06-04T08:50:26;21.20;93.80
59847;DHT22;45728;48.788;2.302;2023-06-04T08:52:54;21.40;93.80
59847;DHT22;45728;48.788;2.302;2023-06-04T08:55:21;21.40;93.00
59847;DHT22;45728;48.788;2.302;2023-06-04T08:57:49;21.40;93.20
59847;DHT22;45728;48.788;2.302;2023-06-04T09:00:16;21.50;92.80
59847;DHT22;45728;48.788;2.302;2023-06-04T09:02:43;21.50;92.50
59847;DHT22;45728;48.788;2.302;2023-06-04T09:05:10;21.50;92.00
59847;DHT22;45728;48.788;2.302;2023-06-04T09:07:46;21.60;91.90
59847;DHT22;45728;48.788;2.302;2023-06-04T09:10:13;21.90;91.10
59847;DHT22;45728;48.788;2.302;2023-06-04T09:12:43;22.00;91.20
59847;DHT22;45728;48.788;2.302;2023-06-04T09:15:12;22.40;90.60
59847;DHT22;45728;48.788;2.302;2023-06-04T09:17:38;22.30;90.20
59847;DHT22;45728;48.788;2.302;2023-06-04T09:20:05;22.30;90.70
59847;DHT22;45728;48.788;2.302;2023-06-04T09:22:37;22.20;90.90
59847;DHT22;45728;48.788;2.302;2023-06-04T09:25:05;22.60;91.30
59847;DHT22;45728;48.788;2.302;2023-06-04T09:27:40;22.90;90.90
59847;DHT22;45728;48.788;2.302;2023-06-04T09:30:07;23.30;90.90
59847;DHT22;45728;48.788;2.302;2023-06-04T09:32:35;23.40;90.40
59847;DHT22;45728;48.788;2.302;2023-06-04T09:35:19;23.80;90.00
59847;DHT22;45728;48.788;2.302;2023-06-04T09:37:53;24.10;90.00
59847;DHT22;45728;48.788;2.302;2023-06-04T09:40:19;23.90;87.20
59847;DHT22;45728;48.788;2.302;2023-06-04T09:42:47;23.60;88.00
59847;DHT22;45728;48.788;2.302;2023-06-04T09:45:33;23.50;86.70
59847;DHT22;45728;48.788;2.302;2023-06-04T09:48:01;23.90;87.80
59847;DHT22;45728;48.788;2.302;2023-06-04T09:50:32;23.90;86.90
59847;DHT22;45728;48.788;2.302;2023-06-04T09:52:59;23.80;87.80
59847;DHT22;45728;48.788;2.302;2023-06-04T09:55:26;24.30;85.70
59847;DHT22;45728;48.788;2.302;2023-06-04T09:57:53;24.30;85.10
59847;DHT22;45728;48.788;2.302;2023-06-04T10:00:21;24.70;86.60
59847;DHT22;45728;48.788;2.302;2023-06-04T10:02:49;25.10;84.90
59847;DHT22;45728;48.788;2.302;2023-06-04T10:05:15;25.20;86.10
59847;DHT22;45728;48.788;2.302;2023-06-04T10:07:45;24.80;84.70
59847;DHT22;45728;48.788;2.302;2023-06-04T10:10:16;24.70;83.70
59847;DHT22;45728;48.788;2.302;2023-06-04T10:12:45;24.50;84.70
59847;DHT22;45728;48.788;2.302;2023-06-04T10:15:17;24.30;83.20
59847;DHT22;45728;48.788;2.302;2023-06-04T10:17:43;24.40;84.50
59847;DHT22;45728;48.788;2.302;2023-06-04T10:20:10;24.70;85.50
59847;DHT22;45728;48.788;2.302;2023-06-04T10:22:37;24.90;83.40
59847;DHT22;45728;48.788;2.302;2023-06-04T10:25:04;25.10;85.70
59847;DHT22;45728;48.788;2.302;2023-06-04T10:27:31;24.90;82.80
59847;DHT22;45728;48.788;2.302;2023-06-04T10:29:58;24.80;82.40
59847;DHT22;45728;48.788;2.302;2023-06-04T10:32:28;24.80;82.00
59847;DHT22;45728;48.788;2.302;2023-06-04T10:34:54;24.80;81.70
59847;DHT22;45728;48.788;2.302;2023-06-04T10:37:22;24.50;83.50
59847;DHT22;45728;48.788;2.302;2023-06-04T10:39:52;25.00;83.70
59847;DHT22;45728;48.788;2.302;2023-06-04T10:42:19;25.30;81.10
59847;DHT22;45728;48.788;2.302;2023-06-04T10:44:51;25.10;81.60
59847;DHT22;45728;48.788;2.302;2023-06-04T10:47:21;25.10;82.10
59847;DHT22;45728;48.788;2.302;2023-06-04T10:49:50;25.00;80.80
59847;DHT22;45728;48.788;2.302;2023-06-04T10:52:17;25.10;79.40
59847;DHT22;45728;48.788;2.302;2023-06-04T10:54:45;25.20;79.70
59847;DHT22;45728;48.788;2.302;2023-06-04T10:57:13;25.10;78.80
59847;DHT22;45728;48.788;2.302;2023-06-04T10:59:39;25.00;80.00
59847;DHT22;45728;48.788;2.302;2023-06-04T11:02:06;25.60;80.80
59847;DHT22;45728;48.788;2.302;2023-06-04T11:04:33;25.50;78.70
59847;DHT22;45728;48.788;2.302;2023-06-04T11:07:03;25.30;80.90
59847;DHT22;45728;48.788;2.302;2023-06-04T11:09:35;26.30;79.60
59847;DHT22;45728;48.788;2.302;2023-06-04T11:12:03;26.80;76.30
59847;DHT22;45728;48.788;2.302;2023-06-04T11:14:30;26.50;77.60
59847;DHT22;45728;48.788;2.302;2023-06-04T11:16:56;26.20;78.20
59847;DHT22;45728;48.788;2.302;2023-06-04T11:19:22;26.10;77.90
59847;DHT22;45728;48.788;2.302;2023-06-04T11:21:49;25.60;78.40
59847;DHT22;45728;48.788;2.302;2023-06-04T11:24:16;25.90;80.20
59847;DHT22;45728;48.788;2.302;2023-06-04T11:26:42;26.90;78.50
59847;DHT22;45728;48.788;2.302;2023-06-04T11:29:11;27.10;77.10
59847;DHT22;45728;48.788;2.302;2023-06-04T11:31:41;25.90;76.20
59847;DHT22;45728;48.788;2.302;2023-06-04T11:34:08;25.60;76.80
59847;DHT22;45728;48.788;2.302;2023-06-04T11:36:35;25.30;77.40
59847;DHT22;45728;48.788;2.302;2023-06-04T11:39:03;25.30;77.10
59847;DHT22;45728;48.788;2.302;2023-06-04T11:41:33;25.20;76.10
59847;DHT22;45728;48.788;2.302;2023-06-04T11:44:05;25.40;77.20
59847;DHT22;45728;48.788;2.302;2023-06-04T11:46:49;25.60;74.60
59847;DHT22;45728;48.788;2.302;2023-06-04T11:49:19;26.40;76.40
59847;DHT22;45728;48.788;2.302;2023-06-04T11:51:46;25.70;73.20
59847;DHT22;45728;48.788;2.302;2023-06-04T11:54:13;25.50;73.50
59847;DHT22;45728;48.788;2.302;2023-06-04T11:56:42;25.90;74.80
59847;DHT22;45728;48.788;2.302;2023-06-04T11:59:12;26.40;74.80
59847;DHT22;45728;48.788;2.302;2023-06-04T12:01:42;27.20;74.90
59847;DHT22;45728;48.788;2.302;2023-06-04T12:04:29;27.40;73.00
59847;DHT22;45728;48.788;2.302;2023-06-04T12:06:56;26.40;72.50
59847;DHT22;45728;48.788;2.302;2023-06-04T12:09:24;26.10;74.30
59847;DHT22;45728;48.788;2.302;2023-06-04T12:11:59;26.70;76.50
59847;DHT22;45728;48.788;2.302;2023-06-04T12:14:26;26.30;74.50
59847;DHT22;45728;48.788;2.302;2023-06-04T12:16:59;26.20;74.70
59847;DHT22;45728;48.788;2.302;2023-06-04T12:19:26;26.10;74.90
59847;DHT22;45728;48.788;2.302;2023-06-04T12:22:06;26.00;75.10
59847;DHT22;45728;48.788;2.302;2023-06-04T12:24:35;26.30;75.20
59847;DHT22;45728;48.788;2.302;2023-06-04T12:27:11;26.80;77.20
59847;DHT22;45728;48.788;2.302;2023-06-04T12:29:39;26.60;75.00
59847;DHT22;45728;48.788;2.302;2023-06-04T12:34:40;26.10;76.20
59847;DHT22;45728;48.788;2.302;2023-06-04T12:37:07;27.10;76.80
59847;DHT22;45728;48.788;2.302;2023-06-04T12:39:34;26.80;72.40
59847;DHT22;45728;48.788;2.302;2023-06-04T12:42:06;26.30;72.50
59847;DHT22;45728;48.788;2.302;2023-06-04T12:44:33;26.40;74.00
59847;DHT22;45728;48.788;2.302;2023-06-04T12:46:59;26.60;73.70
59847;DHT22;45728;48.788;2.302;2023-06-04T12:49:25;26.90;72.00
59847;DHT22;45728;48.788;2.302;2023-06-04T12:51:51;27.00;71.90
59847;DHT22;45728;48.788;2.302;2023-06-04T12:54:17;27.10;72.30
59847;DHT22;45728;48.788;2.302;2023-06-04T12:56:44;27.10;70.80
59847;DHT22;45728;48.788;2.302;2023-06-04T12:59:10;26.30;73.50
59847;DHT22;45728;48.788;2.302;2023-06-04T13:01:36;26.20;74.10
59847;DHT22;45728;48.788;2.302;2023-06-04T13:04:05;26.40;73.90
59847;DHT22;45728;48.788;2.302;2023-06-04T13:06:33;26.40;74.00
59847;DHT22;45728;48.788;2.302;2023-06-04T13:08:59;26.60;71.40
59847;DHT22;45728;48.788;2.302;2023-06-04T13:11:26;26.80;74.00
59847;DHT22;45728;48.788;2.302;2023-06-04T13:13:52;27.00;70.90
59847;DHT22;45728;48.788;2.302;2023-06-04T13:16:18;26.40;71.30
59847;DHT22;45728;48.788;2.302;2023-06-04T13:18:44;26.60;73.00
59847;DHT22;45728;48.788;2.302;2023-06-04T13:21:10;27.10;73.30
59847;DHT22;45728;48.788;2.302;2023-06-04T13:23:36;27.80;72.10
59847;DHT22;45728;48.788;2.302;2023-06-04T13:26:02;27.30;69.50
59847;DHT22;45728;48.788;2.302;2023-06-04T13:28:28;27.20;72.80
59847;DHT22;45728;48.788;2.302;2023-06-04T13:30:54;27.60;73.20
59847;DHT22;45728;48.788;2.302;2023-06-04T13:33:20;27.30;71.50
59847;DHT22;45728;48.788;2.302;2023-06-04T13:35:47;26.20;72.10
59847;DHT22;45728;48.788;2.302;2023-06-04T13:38:13;26.10;72.20
59847;DHT22;45728;48.788;2.302;2023-06-04T13:40:39;26.10;72.30
59847;DHT22;45728;48.788;2.302;2023-06-04T13:43:05;26.30;72.40
59847;DHT22;45728;48.788;2.302;2023-06-04T13:45:34;26.40;73.40
59847;DHT22;45728;48.788;2.302;2023-06-04T13:48:00;26.40;74.00
59847;DHT22;45728;48.788;2.302;2023-06-04T13:50:31;26.90;72.60
59847;DHT22;45728;48.788;2.302;2023-06-04T13:52:57;26.70;73.30
59847;DHT22;45728;48.788;2.302;2023-06-04T13:55:23;27.20;71.70
59847;DHT22;45728;48.788;2.302;2023-06-04T13:57:49;26.70;71.20
59847;DHT22;45728;48.788;2.302;2023-06-04T14:00:16;26.40;70.60
59847;DHT22;45728;48.788;2.302;2023-06-04T14:02:42;26.30;71.70
59847;DHT22;45728;48.788;2.302;2023-06-04T14:05:08;26.70;71.00
59847;DHT22;45728;48.788;2.302;2023-06-04T14:07:34;26.70;70.20
59847;DHT22;45728;48.788;2.302;2023-06-04T14:10:01;26.40;69.40
59847;DHT22;45728;48.788;2.302;2023-06-04T14:12:27;26.10;70.30
59847;DHT22;45728;48.788;2.302;2023-06-04T14:14:53;26.30;72.00
59847;DHT22;45728;48.788;2.302;2023-06-04T14:17:19;26.10;71.70
59847;DHT22;45728;48.788;2.302;2023-06-04T14:19:45;26.30;71.40
59847;DHT22;45728;48.788;2.302;2023-06-04T14:22:11;26.70;73.10
59847;DHT22;45728;48.788;2.302;2023-06-04T14:24:40;26.90;70.80
59847;DHT22;45728;48.788;2.302;2023-06-04T14:27:06;26.60;71.70
59847;DHT22;45728;48.788;2.302;2023-06-04T14:29:34;26.20;71.20
59847;DHT22;45728;48.788;2.302;2023-06-04T14:32:00;26.60;72.90
59847;DHT22;45728;48.788;2.302;2023-06-04T14:34:26;26.90;70.70
59847;DHT22;45728;48.788;2.302;2023-06-04T14:36:52;27.10;72.20
59847;DHT22;45728;48.788;2.302;2023-06-04T14:39:18;27.30;71.10
59847;DHT22;45728;48.788;2.302;2023-06-04T14:41:44;27.00;70.80
59847;DHT22;45728;48.788;2.302;2023-06-04T14:44:10;26.80;70.50
59847;DHT22;45728;48.788;2.302;2023-06-04T14:46:36;26.90;70.70
59847;DHT22;45728;48.788;2.302;2023-06-04T14:49:02;26.80;70.70
59847;DHT22;45728;48.788;2.302;2023-06-04T14:51:28;26.70;70.90
59847;DHT22;45728;48.788;2.302;2023-06-04T14:53:54;26.40;71.40
59847;DHT22;45728;48.788;2.302;2023-06-04T14:56:21;26.10;71.80
59847;DHT22;45728;48.788;2.302;2023-06-04T14:58:48;26.20;71.40
59847;DHT22;45728;48.788;2.302;2023-06-04T15:01:14;26.70;72.10
59847;DHT22;45728;48.788;2.302;2023-06-04T15:03:42;26.50;70.70
59847;DHT22;45728;48.788;2.302;2023-06-04T15:06:08;26.60;70.90
59847;DHT22;45728;48.788;2.302;2023-06-04T15:08:34;26.50;71.90
59847;DHT22;45728;48.788;2.302;2023-06-04T15:11:00;26.50;71.30
59847;DHT22;45728;48.788;2.302;2023-06-04T15:13:26;26.30;71.00
59847;DHT22;45728;48.788;2.302;2023-06-04T15:15:52;26.00;71.80
59847;DHT22;45728;48.788;2.302;2023-06-04T15:18:18;26.40;70.60
59847;DHT22;45728;48.788;2.302;2023-06-04T15:20:44;26.30;70.60
59847;DHT22;45728;48.788;2.302;2023-06-04T15:23:10;26.00;70.30
59847;DHT22;45728;48.788;2.302;2023-06-04T15:25:36;26.00;70.20
59847;DHT22;45728;48.788;2.302;2023-06-04T15:28:05;26.00;70.70
59847;DHT22;45728;48.788;2.302;2023-06-04T15:30:31;25.90;70.20
59847;DHT22;45728;48.788;2.302;2023-06-04T15:32:57;26.20;70.40
59847;DHT22;45728;48.788;2.302;2023-06-04T15:35:27;26.30;71.00
59847;DHT22;45728;48.788;2.302;2023-06-04T15:37:54;26.20;71.00